createdAt,value
2023-02-07T00:07:18.101Z,101905.09
2023-02-07T00:17:24.371Z,101904.73
2023-02-07T00:27:31.034Z,101906.10
2023-02-07T00:37:37.134Z,101877.90
2023-02-07T00:47:43.094Z,101859.65
2023-02-07T00:57:49.622Z,101860.59
2023-02-07T01:07:55.733Z,101846.77
2023-02-07T01:18:01.745Z,101841.51
2023-02-07T01:28:08.315Z,101832.48
2023-02-07T01:38:14.387Z,101824.91
2023-02-07T01:48:24.917Z,101823.71
2023-02-07T01:58:32.219Z,101831.77
2023-02-07T02:08:38.128Z,101836.61
2023-02-07T02:18:54.198Z,101817.05
2023-02-07T02:29:41.880Z,101813.91
2023-02-07T02:39:57.622Z,101827.42
2023-02-07T02:50:04.010Z,101823.27
2023-02-07T03:00:32.466Z,101816.36
2023-02-07T03:10:46.639Z,101817.22
2023-02-07T03:20:57.636Z,101824.11
2023-02-07T03:31:06.800Z,101823.02
2023-02-07T03:41:17.680Z,101824.80
2023-02-07T03:51:23.671Z,101823.15
2023-02-07T04:01:29.902Z,101824.96
2023-02-07T04:11:35.901Z,101823.78
2023-02-07T04:21:42.155Z,101811.41
2023-02-07T04:31:48.151Z,101803.56
2023-02-07T04:41:54.338Z,101795.85
2023-02-07T04:52:00.343Z,101805.03
2023-02-07T05:02:06.262Z,101805.64
2023-02-07T05:12:13.154Z,101805.92
2023-02-07T05:22:18.953Z,101803.58
2023-02-07T05:32:42.284Z,101812.20
2023-02-07T05:43:18.600Z,101829.09
2023-02-07T05:53:24.585Z,101838.95
2023-02-07T06:03:30.981Z,101837.11
2023-02-07T06:13:37.000Z,101842.10
2023-02-07T06:23:42.941Z,101854.52
2023-02-07T06:33:48.879Z,101868.91
2023-02-07T06:43:55.089Z,101866.95
2023-02-07T06:54:03.382Z,101857.68
2023-02-07T07:04:09.312Z,101856.77
2023-02-07T07:14:15.213Z,101862.10
2023-02-07T07:24:21.385Z,101866.95
2023-02-07T07:34:27.243Z,101870.30
2023-02-07T07:44:33.161Z,101866.72
2023-02-07T07:54:39.063Z,101867.70
2023-02-07T08:04:44.925Z,101867.52
2023-02-07T08:14:50.807Z,101868.26
2023-02-07T08:24:56.375Z,101871.61
2023-02-07T08:35:02.156Z,101878.15
2023-02-07T08:45:08.984Z,101886.39
2023-02-07T08:55:14.840Z,101890.15
2023-02-07T09:05:20.726Z,101894.27
2023-02-07T09:15:26.694Z,101902.25
2023-02-07T09:25:31.134Z,101910.90
2023-02-07T09:35:41.644Z,101916.77
2023-02-07T09:45:50.595Z,101914.13
2023-02-07T09:55:59.445Z,101914.77
2023-02-07T10:06:18.304Z,101907.66
2023-02-07T10:16:39.202Z,101901.48
2023-02-07T10:26:49.566Z,101899.21
2023-02-07T10:36:58.198Z,101889.17
2023-02-07T10:47:07.738Z,101873.55
2023-02-07T10:57:21.233Z,101866.05
2023-02-07T11:07:29.311Z,101860.83
2023-02-07T11:17:38.272Z,101846.79
2023-02-07T11:27:48.024Z,101834.27
2023-02-07T11:38:04.616Z,101838.89
2023-02-07T11:48:19.943Z,101830.50
2023-02-07T11:58:34.379Z,101830.03
2023-02-07T12:08:42.745Z,101820.30
2023-02-07T12:18:55.074Z,101814.11
2023-02-07T12:29:16.452Z,101809.74
2023-02-07T12:39:31.176Z,101808.80
2023-02-07T12:50:04.688Z,101800.92
2023-02-07T13:00:16.484Z,101797.19
2023-02-07T13:10:31.747Z,101792.64
2023-02-07T13:20:52.265Z,101787.08
2023-02-07T13:31:00.053Z,101793.32
2023-02-07T13:41:13.232Z,101789.48
2023-02-07T13:51:28.707Z,101788.68
2023-02-07T14:01:37.104Z,101778.22
2023-02-07T14:11:45.066Z,101780.30
2023-02-07T14:22:17.984Z,101787.83
2023-02-07T14:32:32.650Z,101784.70
2023-02-07T14:42:39.572Z,101799.86
2023-02-07T14:52:47.637Z,101808.77
2023-02-07T15:02:57.798Z,101822.62
2023-02-07T15:13:07.269Z,101837.73
2023-02-07T15:23:16.727Z,101850.33
2023-02-07T15:33:27.929Z,101857.27
2023-02-07T15:43:35.814Z,101867.17
2023-02-07T15:53:41.955Z,101873.23
2023-02-07T16:03:47.185Z,101884.23
2023-02-07T16:13:56.698Z,101892.29
2023-02-07T16:24:06.476Z,101905.94
2023-02-07T16:34:15.198Z,101910.73
2023-02-07T16:44:24.272Z,101914.36
2023-02-07T16:54:30.479Z,101915.42
2023-02-07T17:04:36.574Z,101918.04
2023-02-07T17:14:42.598Z,101934.98
2023-02-07T17:24:48.947Z,101935.98
2023-02-07T17:34:54.896Z,101944.77
2023-02-07T17:45:00.800Z,101950.28
2023-02-07T17:55:07.845Z,101950.56
2023-02-07T18:05:13.787Z,101960.20
2023-02-07T18:15:20.314Z,101973.98
2023-02-07T18:25:28.068Z,101979.77
2023-02-07T18:35:34.653Z,101989.91
2023-02-07T18:45:43.689Z,101997.34
2023-02-07T18:55:49.610Z,102000.13
2023-02-07T19:05:59.312Z,102000.33
2023-02-07T19:16:07.850Z,101999.69
2023-02-07T19:26:13.731Z,101994.88
2023-02-07T19:36:22.317Z,101995.66
2023-02-07T19:46:28.738Z,101998.02
2023-02-07T19:56:36.702Z,101987.48
2023-02-07T20:06:42.626Z,101985.66
2023-02-07T20:16:49.235Z,101991.09
2023-02-07T20:26:55.161Z,101996.59
2023-02-07T20:37:01.190Z,101994.99
2023-02-07T20:47:06.020Z,101999.32
2023-02-07T20:57:12.015Z,102008.69
2023-02-07T21:07:18.311Z,102022.02
2023-02-07T21:17:24.461Z,102036.65
2023-02-07T21:27:30.967Z,102045.86
2023-02-07T21:37:37.160Z,102058.02
2023-02-07T21:47:43.090Z,102062.98
2023-02-07T21:57:49.033Z,102066.43
2023-02-07T22:07:53.541Z,102071.46
2023-02-07T22:17:59.429Z,102073.66
2023-02-07T22:28:06.041Z,102080.21
2023-02-07T22:38:13.755Z,102075.27
2023-02-07T22:48:19.611Z,102073.66
2023-02-07T22:58:25.618Z,102083.19
2023-02-07T23:08:31.392Z,102082.57
2023-02-07T23:18:37.361Z,102085.58
2023-02-07T23:28:45.073Z,102088.68
2023-02-07T23:38:51.517Z,102089.59
2023-02-07T23:48:57.504Z,102097.02
2023-02-07T23:59:03.285Z,102094.59
